sensor_id;sensor_type;location;lat;lon;timestamp;pressure;altitude;pressure_sealevel;temperature;humidity
5755;BME280;2902;42.130;24.732;2022-10-16T00:00:21;100187.34;;;14.47;70.85
5755;BME280;2902;42.130;24.732;2022-10-16T00:02:47;100190.84;;;14.41;71.45
5755;BME280;2902;42.130;24.732;2022-10-16T00:05:14;100202.72;;;14.26;71.21
5755;BME280;2902;42.130;24.732;2022-10-16T00:07:41;100196.09;;;14.15;70.96
5755;BME280;2902;42.130;24.732;2022-10-16T00:10:09;100195.25;;;14.08;70.80
5755;BME280;2902;42.130;24.732;2022-10-16T00:12:36;100191.97;;;14.06;70.77
5755;BME280;2902;42.130;24.732;2022-10-16T00:15:03;100189.06;;;14.01;70.71
5755;BME280;2902;42.130;24.732;2022-10-16T00:17:30;100197.31;;;14.06;71.05
5755;BME280;2902;42.130;24.732;2022-10-16T00:19:57;100203.06;;;14.03;70.83
5755;BME280;2902;42.130;24.732;2022-10-16T00:22:24;100204.69;;;14.04;70.67
5755;BME280;2902;42.130;24.732;2022-10-16T00:24:51;100204.69;;;14.04;70.65
5755;BME280;2902;42.130;24.732;2022-10-16T00:27:19;100213.28;;;14.00;71.05
5755;BME280;2902;42.130;24.732;2022-10-16T00:29:49;100199.50;;;13.90;71.55
5755;BME280;2902;42.130;24.732;2022-10-16T00:32:16;100201.31;;;13.83;72.16
5755;BME280;2902;42.130;24.732;2022-10-16T00:34:43;100198.22;;;13.79;72.30
5755;BME280;2902;42.130;24.732;2022-10-16T00:37:09;100202.53;;;13.80;71.92
5755;BME280;2902;42.130;24.732;2022-10-16T00:39:36;100210.53;;;13.74;72.31
5755;BME280;2902;42.130;24.732;2022-10-16T00:42:03;100206.59;;;13.63;73.14
5755;BME280;2902;42.130;24.732;2022-10-16T00:44:49;100205.66;;;13.43;73.77
5755;BME280;2902;42.130;24.732;2022-10-16T00:47:21;100218.28;;;13.28;73.81
5755;BME280;2902;42.130;24.732;2022-10-16T00:49:50;100213.47;;;13.11;75.48
5755;BME280;2902;42.130;24.732;2022-10-16T00:52:19;100212.38;;;13.05;75.19
5755;BME280;2902;42.130;24.732;2022-10-16T00:54:46;100218.59;;;12.91;75.99
5755;BME280;2902;42.130;24.732;2022-10-16T00:57:13;100230.22;;;12.84;76.70
5755;BME280;2902;42.130;24.732;2022-10-16T00:59:41;100221.81;;;12.80;76.73
5755;BME280;2902;42.130;24.732;2022-10-16T01:02:13;100232.72;;;12.85;76.58
5755;BME280;2902;42.130;24.732;2022-10-16T01:04:42;100236.41;;;12.84;76.80
5755;BME280;2902;42.130;24.732;2022-10-16T01:07:13;100239.69;;;12.86;76.93
5755;BME280;2902;42.130;24.732;2022-10-16T01:09:49;100248.28;;;12.82;76.86
5755;BME280;2902;42.130;24.732;2022-10-16T01:12:23;100253.16;;;12.78;77.01
5755;BME280;2902;42.130;24.732;2022-10-16T01:14:54;100262.53;;;12.74;77.11
5755;BME280;2902;42.130;24.732;2022-10-16T01:17:28;100251.00;;;12.67;77.72
5755;BME280;2902;42.130;24.732;2022-10-16T01:20:06;100257.75;;;12.63;78.03
5755;BME280;2902;42.130;24.732;2022-10-16T01:22:39;100262.41;;;12.61;79.15
5755;BME280;2902;42.130;24.732;2022-10-16T01:25:16;100262.19;;;12.56;78.90
5755;BME280;2902;42.130;24.732;2022-10-16T01:27:47;100257.41;;;12.52;79.79
5755;BME280;2902;42.130;24.732;2022-10-16T01:30:18;100255.31;;;12.47;79.73
5755;BME280;2902;42.130;24.732;2022-10-16T01:32:50;100268.47;;;12.49;79.60
5755;BME280;2902;42.130;24.732;2022-10-16T01:35:23;100268.09;;;12.37;79.15
5755;BME280;2902;42.130;24.732;2022-10-16T01:37:55;100266.69;;;12.20;79.74
5755;BME280;2902;42.130;24.732;2022-10-16T01:40:26;100271.19;;;12.20;79.70
5755;BME280;2902;42.130;24.732;2022-10-16T01:42:58;100278.00;;;12.22;79.96
5755;BME280;2902;42.130;24.732;2022-10-16T01:45:28;100271.00;;;12.21;79.70
5755;BME280;2902;42.130;24.732;2022-10-16T01:47:57;100279.75;;;12.15;79.76
5755;BME280;2902;42.130;24.732;2022-10-16T01:50:26;100286.91;;;12.15;80.10
5755;BME280;2902;42.130;24.732;2022-10-16T01:52:55;100286.09;;;12.14;79.95
5755;BME280;2902;42.130;24.732;2022-10-16T01:55:27;100282.78;;;12.12;80.00
5755;BME280;2902;42.130;24.732;2022-10-16T01:57:59;100282.34;;;12.09;80.37
5755;BME280;2902;42.130;24.732;2022-10-16T02:00:29;100288.22;;;12.04;80.37
5755;BME280;2902;42.130;24.732;2022-10-16T02:02:57;100280.78;;;12.00;81.41
5755;BME280;2902;42.130;24.732;2022-10-16T02:05:27;100285.03;;;11.94;81.11
5755;BME280;2902;42.130;24.732;2022-10-16T02:07:55;100283.75;;;11.90;81.46
5755;BME280;2902;42.130;24.732;2022-10-16T02:10:23;100281.25;;;11.89;82.05
5755;BME280;2902;42.130;24.732;2022-10-16T02:12:57;100281.19;;;11.82;81.53
5755;BME280;2902;42.130;24.732;2022-10-16T02:15:25;100281.97;;;11.83;81.59
5755;BME280;2902;42.130;24.732;2022-10-16T02:17:51;100281.09;;;11.76;80.97
5755;BME280;2902;42.130;24.732;2022-10-16T02:20:20;100292.00;;;11.66;80.50
5755;BME280;2902;42.130;24.732;2022-10-16T02:22:49;100296.09;;;11.54;81.03
5755;BME280;2902;42.130;24.732;2022-10-16T02:25:21;100291.59;;;11.40;82.01
5755;BME280;2902;42.130;24.732;2022-10-16T02:27:54;100292.66;;;11.31;82.47
5755;BME280;2902;42.130;24.732;2022-10-16T02:30:25;100294.34;;;11.32;82.00
5755;BME280;2902;42.130;24.732;2022-10-16T02:32:55;100291.19;;;11.29;82.71
5755;BME280;2902;42.130;24.732;2022-10-16T02:35:25;100300.66;;;11.31;81.94
5755;BME280;2902;42.130;24.732;2022-10-16T02:37:53;100294.69;;;11.29;82.01
5755;BME280;2902;42.130;24.732;2022-10-16T02:40:20;100304.31;;;11.30;82.00
5755;BME280;2902;42.130;24.732;2022-10-16T02:42:50;100304.66;;;11.27;82.48
5755;BME280;2902;42.130;24.732;2022-10-16T02:45:18;100295.13;;;11.18;83.27
5755;BME280;2902;42.130;24.732;2022-10-16T02:47:46;100295.59;;;11.22;83.72
5755;BME280;2902;42.130;24.732;2022-10-16T02:50:13;100307.34;;;11.27;83.48
5755;BME280;2902;42.130;24.732;2022-10-16T02:52:40;100305.34;;;11.29;82.89
5755;BME280;2902;42.130;24.732;2022-10-16T02:55:07;100314.78;;;11.32;82.44
5755;BME280;2902;42.130;24.732;2022-10-16T02:57:34;100308.63;;;11.31;82.88
5755;BME280;2902;42.130;24.732;2022-10-16T03:00:03;100317.63;;;11.30;82.79
5755;BME280;2902;42.130;24.732;2022-10-16T03:02:29;100324.59;;;11.31;82.93
5755;BME280;2902;42.130;24.732;2022-10-16T03:04:57;100319.25;;;11.31;82.78
5755;BME280;2902;42.130;24.732;2022-10-16T03:07:24;100324.78;;;11.30;83.17
5755;BME280;2902;42.130;24.732;2022-10-16T03:09:51;100322.13;;;11.30;83.74
5755;BME280;2902;42.130;24.732;2022-10-16T03:12:18;100323.59;;;11.32;83.00
5755;BME280;2902;42.130;24.732;2022-10-16T03:14:44;100319.25;;;11.31;83.20
5755;BME280;2902;42.130;24.732;2022-10-16T03:17:11;100329.72;;;11.33;82.52
5755;BME280;2902;42.130;24.732;2022-10-16T03:19:38;100336.91;;;11.32;82.96
5755;BME280;2902;42.130;24.732;2022-10-16T03:22:07;100340.53;;;11.31;83.20
5755;BME280;2902;42.130;24.732;2022-10-16T03:24:33;100334.25;;;11.32;83.14
5755;BME280;2902;42.130;24.732;2022-10-16T03:27:00;100338.38;;;11.35;83.18
5755;BME280;2902;42.130;24.732;2022-10-16T03:29:27;100336.16;;;11.38;83.25
5755;BME280;2902;42.130;24.732;2022-10-16T03:31:54;100337.53;;;11.34;83.42
5755;BME280;2902;42.130;24.732;2022-10-16T03:34:21;100337.34;;;11.36;84.00
5755;BME280;2902;42.130;24.732;2022-10-16T03:36:48;100334.50;;;11.37;83.69
5755;BME280;2902;42.130;24.732;2022-10-16T03:39:16;100339.00;;;11.37;83.23
5755;BME280;2902;42.130;24.732;2022-10-16T03:41:43;100339.16;;;11.35;83.86
5755;BME280;2902;42.130;24.732;2022-10-16T03:44:11;100344.22;;;11.30;83.89
5755;BME280;2902;42.130;24.732;2022-10-16T03:46:38;100336.06;;;11.32;84.12
5755;BME280;2902;42.130;24.732;2022-10-16T03:49:05;100345.78;;;11.39;83.88
5755;BME280;2902;42.130;24.732;2022-10-16T03:51:31;100345.59;;;11.41;83.58
5755;BME280;2902;42.130;24.732;2022-10-16T03:53:58;100353.41;;;11.42;83.60
5755;BME280;2902;42.130;24.732;2022-10-16T03:56:26;100353.41;;;11.42;83.83
5755;BME280;2902;42.130;24.732;2022-10-16T03:58:53;100351.94;;;11.40;84.38
5755;BME280;2902;42.130;24.732;2022-10-16T04:01:20;100352.53;;;11.27;84.92
5755;BME280;2902;42.130;24.732;2022-10-16T04:03:46;100361.25;;;11.21;85.53
5755;BME280;2902;42.130;24.732;2022-10-16T04:06:13;100356.78;;;11.22;85.52
5755;BME280;2902;42.130;24.732;2022-10-16T04:08:42;100353.63;;;11.18;85.43
5755;BME280;2902;42.130;24.732;2022-10-16T04:11:09;100354.56;;;11.25;85.16
5755;BME280;2902;42.130;24.732;2022-10-16T04:13:37;100355.19;;;11.27;84.96
5755;BME280;2902;42.130;24.732;2022-10-16T04:16:04;100349.44;;;11.24;85.21
5755;BME280;2902;42.130;24.732;2022-10-16T04:18:30;100352.75;;;11.26;85.04
5755;BME280;2902;42.130;24.732;2022-10-16T04:21:02;100356.38;;;11.25;84.24
5755;BME280;2902;42.130;24.732;2022-10-16T04:23:29;100353.78;;;11.17;84.29
5755;BME280;2902;42.130;24.732;2022-10-16T04:25:55;100357.47;;;11.16;84.74
5755;BME280;2902;42.130;24.732;2022-10-16T04:28:22;100362.38;;;11.04;85.35
5755;BME280;2902;42.130;24.732;2022-10-16T04:30:50;100360.06;;;11.01;85.91
5755;BME280;2902;42.130;24.732;2022-10-16T04:33:17;100357.47;;;10.93;86.27
5755;BME280;2902;42.130;24.732;2022-10-16T04:35:44;100364.81;;;10.91;86.54
5755;BME280;2902;42.130;24.732;2022-10-16T04:38:10;100359.97;;;10.94;86.34
5755;BME280;2902;42.130;24.732;2022-10-16T04:40:37;100360.44;;;10.98;85.72
5755;BME280;2902;42.130;24.732;2022-10-16T04:43:04;100361.09;;;11.00;85.18
5755;BME280;2902;42.130;24.732;2022-10-16T04:45:32;100362.91;;;10.99;85.10
5755;BME280;2902;42.130;24.732;2022-10-16T04:48:00;100357.59;;;10.99;85.78
5755;BME280;2902;42.130;24.732;2022-10-16T04:50:27;100364.09;;;10.97;85.93
5755;BME280;2902;42.130;24.732;2022-10-16T04:52:54;100363.47;;;10.95;85.18
5755;BME280;2902;42.130;24.732;2022-10-16T04:55:20;100366.13;;;10.95;85.55
5755;BME280;2902;42.130;24.732;2022-10-16T04:57:47;100372.06;;;10.97;85.41
5755;BME280;2902;42.130;24.732;2022-10-16T05:00:15;100382.06;;;10.95;84.99
5755;BME280;2902;42.130;24.732;2022-10-16T05:02:41;100381.94;;;10.88;85.94
5755;BME280;2902;42.130;24.732;2022-10-16T05:05:09;100385.72;;;10.94;85.85
5755;BME280;2902;42.130;24.732;2022-10-16T05:07:37;100389.31;;;11.01;85.97
5755;BME280;2902;42.130;24.732;2022-10-16T05:10:04;100386.25;;;11.12;85.42
5755;BME280;2902;42.130;24.732;2022-10-16T05:12:31;100391.63;;;11.27;85.19
5755;BME280;2902;42.130;24.732;2022-10-16T05:14:58;100392.84;;;11.61;86.04
5755;BME280;2902;42.130;24.732;2022-10-16T05:17:25;100398.94;;;11.99;83.29
5755;BME280;2902;42.130;24.732;2022-10-16T05:19:52;100404.19;;;12.21;80.98
5755;BME280;2902;42.130;24.732;2022-10-16T05:22:20;100410.66;;;12.62;79.93
5755;BME280;2902;42.130;24.732;2022-10-16T05:24:47;100419.53;;;13.19;81.61
5755;BME280;2902;42.130;24.732;2022-10-16T05:27:14;100419.28;;;13.35;76.25
5755;BME280;2902;42.130;24.732;2022-10-16T05:29:44;100432.50;;;13.43;75.22
5755;BME280;2902;42.130;24.732;2022-10-16T05:32:12;100434.66;;;13.54;74.57
5755;BME280;2902;42.130;24.732;2022-10-16T05:34:39;100435.28;;;13.56;73.19
5755;BME280;2902;42.130;24.732;2022-10-16T05:37:05;100443.69;;;13.53;73.52
5755;BME280;2902;42.130;24.732;2022-10-16T05:39:33;100441.66;;;13.34;73.97
5755;BME280;2902;42.130;24.732;2022-10-16T05:42:02;100449.78;;;13.26;74.16
5755;BME280;2902;42.130;24.732;2022-10-16T05:44:28;100452.94;;;13.15;74.41
5755;BME280;2902;42.130;24.732;2022-10-16T05:46:55;100447.38;;;13.31;77.31
5755;BME280;2902;42.130;24.732;2022-10-16T05:49:22;100469.91;;;13.71;72.85
5755;BME280;2902;42.130;24.732;2022-10-16T05:51:49;100469.22;;;13.83;72.63
5755;BME280;2902;42.130;24.732;2022-10-16T05:54:15;100472.03;;;14.03;71.86
5755;BME280;2902;42.130;24.732;2022-10-16T05:56:43;100474.56;;;14.72;71.01
5755;BME280;2902;42.130;24.732;2022-10-16T05:59:10;100482.19;;;15.29;66.29
5755;BME280;2902;42.130;24.732;2022-10-16T06:01:37;100469.31;;;15.71;69.00
5755;BME280;2902;42.130;24.732;2022-10-16T06:04:03;100478.97;;;15.98;67.32
5755;BME280;2902;42.130;24.732;2022-10-16T06:06:30;100493.53;;;16.68;64.98
5755;BME280;2902;42.130;24.732;2022-10-16T06:08:57;100490.38;;;17.41;62.41
5755;BME280;2902;42.130;24.732;2022-10-16T06:11:26;100501.69;;;17.49;58.92
5755;BME280;2902;42.130;24.732;2022-10-16T06:13:56;100505.63;;;17.47;57.90
5755;BME280;2902;42.130;24.732;2022-10-16T06:16:24;100499.38;;;17.53;59.21
5755;BME280;2902;42.130;24.732;2022-10-16T06:18:52;100500.59;;;17.57;58.23
5755;BME280;2902;42.130;24.732;2022-10-16T06:21:20;100503.59;;;17.36;59.16
5755;BME280;2902;42.130;24.732;2022-10-16T06:23:47;100496.28;;;17.12;60.72
5755;BME280;2902;42.130;24.732;2022-10-16T06:26:16;100501.72;;;16.99;60.40
5755;BME280;2902;42.130;24.732;2022-10-16T06:28:43;100498.06;;;17.31;61.13
5755;BME280;2902;42.130;24.732;2022-10-16T06:31:12;100506.47;;;17.41;58.82
5755;BME280;2902;42.130;24.732;2022-10-16T06:33:39;100506.91;;;17.31;59.01
5755;BME280;2902;42.130;24.732;2022-10-16T06:36:08;100517.06;;;17.67;60.56
5755;BME280;2902;42.130;24.732;2022-10-16T06:38:35;100516.78;;;18.06;56.79
5755;BME280;2902;42.130;24.732;2022-10-16T06:41:02;100501.47;;;18.06;56.90
5755;BME280;2902;42.130;24.732;2022-10-16T06:43:30;100524.03;;;18.30;55.83
5755;BME280;2902;42.130;24.732;2022-10-16T06:45:59;100521.53;;;18.53;56.85
5755;BME280;2902;42.130;24.732;2022-10-16T06:48:28;100516.47;;;19.17;55.47
5755;BME280;2902;42.130;24.732;2022-10-16T06:50:56;100521.22;;;19.92;53.10
5755;BME280;2902;42.130;24.732;2022-10-16T06:53:23;100527.41;;;20.45;50.73
5755;BME280;2902;42.130;24.732;2022-10-16T06:55:50;100523.78;;;20.63;49.91
5755;BME280;2902;42.130;24.732;2022-10-16T06:58:17;100523.31;;;20.31;49.70
5755;BME280;2902;42.130;24.732;2022-10-16T07:00:44;100524.81;;;20.38;50.04
5755;BME280;2902;42.130;24.732;2022-10-16T07:03:10;100528.47;;;20.55;49.06
5755;BME280;2902;42.130;24.732;2022-10-16T07:05:39;100530.81;;;20.63;49.38
5755;BME280;2902;42.130;24.732;2022-10-16T07:08:06;100532.56;;;20.81;49.65
5755;BME280;2902;42.130;24.732;2022-10-16T07:10:33;100535.22;;;21.16;49.06
5755;BME280;2902;42.130;24.732;2022-10-16T07:13:00;100529.88;;;21.60;48.05
5755;BME280;2902;42.130;24.732;2022-10-16T07:15:27;100535.47;;;21.98;45.71
5755;BME280;2902;42.130;24.732;2022-10-16T07:17:54;100548.44;;;22.29;46.26
5755;BME280;2902;42.130;24.732;2022-10-16T07:20:21;100539.59;;;22.50;44.22
5755;BME280;2902;42.130;24.732;2022-10-16T07:22:49;100542.19;;;22.45;44.72
5755;BME280;2902;42.130;24.732;2022-10-16T07:25:15;100539.72;;;22.44;44.11
5755;BME280;2902;42.130;24.732;2022-10-16T07:27:42;100538.19;;;21.98;45.01
5755;BME280;2902;42.130;24.732;2022-10-16T07:30:09;100529.31;;;21.58;46.29
5755;BME280;2902;42.130;24.732;2022-10-16T07:32:37;100525.69;;;21.53;46.97
5755;BME280;2902;42.130;24.732;2022-10-16T07:35:04;100521.75;;;21.60;46.65
5755;BME280;2902;42.130;24.732;2022-10-16T07:37:31;100527.47;;;21.47;49.83
5755;BME280;2902;42.130;24.732;2022-10-16T07:39:59;100528.09;;;21.77;46.22
5755;BME280;2902;42.130;24.732;2022-10-16T07:42:27;100530.09;;;21.59;47.01
5755;BME280;2902;42.130;24.732;2022-10-16T07:44:53;100524.69;;;21.70;46.41
5755;BME280;2902;42.130;24.732;2022-10-16T07:47:20;100523.56;;;21.55;47.39
5755;BME280;2902;42.130;24.732;2022-10-16T07:49:47;100519.66;;;21.62;46.82
5755;BME280;2902;42.130;24.732;2022-10-16T07:52:14;100527.00;;;21.50;47.01
5755;BME280;2902;42.130;24.732;2022-10-16T07:54:40;100518.81;;;21.34;47.59
5755;BME280;2902;42.130;24.732;2022-10-16T07:57:08;100524.34;;;21.39;47.37
5755;BME280;2902;42.130;24.732;2022-10-16T07:59:35;100519.72;;;21.51;47.82
5755;BME280;2902;42.130;24.732;2022-10-16T08:02:02;100519.84;;;21.72;46.97
5755;BME280;2902;42.130;24.732;2022-10-16T08:04:29;100530.38;;;22.02;46.22
5755;BME280;2902;42.130;24.732;2022-10-16T08:06:55;100531.78;;;22.04;45.05
5755;BME280;2902;42.130;24.732;2022-10-16T08:09:22;100532.03;;;22.19;45.49
5755;BME280;2902;42.130;24.732;2022-10-16T08:11:49;100529.28;;;22.47;44.57
5755;BME280;2902;42.130;24.732;2022-10-16T08:14:18;100529.88;;;22.71;43.89
5755;BME280;2902;42.130;24.732;2022-10-16T08:16:45;100524.47;;;22.71;44.18
5755;BME280;2902;42.130;24.732;2022-10-16T08:19:11;100525.41;;;22.81;43.60
5755;BME280;2902;42.130;24.732;2022-10-16T08:21:38;100521.94;;;22.86;43.60
5755;BME280;2902;42.130;24.732;2022-10-16T08:24:05;100525.47;;;22.86;43.35
5755;BME280;2902;42.130;24.732;2022-10-16T08:26:31;100524.22;;;22.72;43.98
5755;BME280;2902;42.130;24.732;2022-10-16T08:28:58;100523.84;;;22.47;44.15
5755;BME280;2902;42.130;24.732;2022-10-16T08:31:26;100522.50;;;22.66;43.65
5755;BME280;2902;42.130;24.732;2022-10-16T08:33:53;100522.31;;;22.73;43.53
5755;BME280;2902;42.130;24.732;2022-10-16T08:36:20;100531.22;;;22.68;43.44
5755;BME280;2902;42.130;24.732;2022-10-16T08:38:48;100518.38;;;22.80;42.71
5755;BME280;2902;42.130;24.732;2022-10-16T08:41:22;100526.38;;;22.92;41.89
5755;BME280;2902;42.130;24.732;2022-10-16T08:44:07;100505.63;;;22.59;42.15
5755;BME280;2902;42.130;24.732;2022-10-16T08:46:45;100523.25;;;22.83;42.93
5755;BME280;2902;42.130;24.732;2022-10-16T08:49:17;100526.16;;;23.15;41.24
5755;BME280;2902;42.130;24.732;2022-10-16T08:51:44;100524.94;;;23.27;41.07
5755;BME280;2902;42.130;24.732;2022-10-16T08:54:23;100519.13;;;23.40;40.22
5755;BME280;2902;42.130;24.732;2022-10-16T08:56:54;100523.44;;;23.63;38.42
5755;BME280;2902;42.130;24.732;2022-10-16T08:59:21;100520.78;;;23.41;38.83
5755;BME280;2902;42.130;24.732;2022-10-16T09:01:50;100514.34;;;23.47;41.28
5755;BME280;2902;42.130;24.732;2022-10-16T09:04:48;100515.22;;;23.79;41.09
5755;BME280;2902;42.130;24.732;2022-10-16T09:07:21;100518.44;;;24.03;40.09
5755;BME280;2902;42.130;24.732;2022-10-16T09:10:00;100509.75;;;24.37;39.81
5755;BME280;2902;42.130;24.732;2022-10-16T09:12:36;100518.09;;;24.62;38.60
5755;BME280;2902;42.130;24.732;2022-10-16T09:15:16;100514.34;;;24.68;38.95
5755;BME280;2902;42.130;24.732;2022-10-16T09:17:54;100517.28;;;25.14;38.70
5755;BME280;2902;42.130;24.732;2022-10-16T09:20:30;100520.06;;;25.34;36.10
5755;BME280;2902;42.130;24.732;2022-10-16T09:23:16;100515.97;;;25.31;34.97
5755;BME280;2902;42.130;24.732;2022-10-16T09:25:45;100513.38;;;24.99;34.69
5755;BME280;2902;42.130;24.732;2022-10-16T09:28:14;100513.88;;;24.86;35.39
5755;BME280;2902;42.130;24.732;2022-10-16T09:30:41;100512.03;;;24.55;35.13
5755;BME280;2902;42.130;24.732;2022-10-16T09:33:12;100502.47;;;24.48;35.94
5755;BME280;2902;42.130;24.732;2022-10-16T09:35:40;100503.56;;;24.47;35.98
5755;BME280;2902;42.130;24.732;2022-10-16T09:38:08;100497.22;;;24.31;36.42
5755;BME280;2902;42.130;24.732;2022-10-16T09:40:36;100498.81;;;24.27;35.32
5755;BME280;2902;42.130;24.732;2022-10-16T09:43:16;100496.03;;;24.22;35.46
5755;BME280;2902;42.130;24.732;2022-10-16T09:45:54;100499.19;;;24.04;35.34
5755;BME280;2902;42.130;24.732;2022-10-16T09:48:22;100488.16;;;23.89;35.74
5755;BME280;2902;42.130;24.732;2022-10-16T09:50:56;100493.50;;;23.79;34.48
5755;BME280;2902;42.130;24.732;2022-10-16T09:53:23;100485.00;;;23.71;34.34
5755;BME280;2902;42.130;24.732;2022-10-16T09:55:50;100487.03;;;23.59;34.78
5755;BME280;2902;42.130;24.732;2022-10-16T09:58:17;100477.50;;;23.51;35.17
5755;BME280;2902;42.130;24.732;2022-10-16T10:00:49;100477.56;;;23.61;35.10
5755;BME280;2902;42.130;24.732;2022-10-16T10:03:33;100467.72;;;23.50;35.67
5755;BME280;2902;42.130;24.732;2022-10-16T10:06:06;100467.25;;;23.58;35.30
5755;BME280;2902;42.130;24.732;2022-10-16T10:08:33;100461.84;;;23.58;35.33
5755;BME280;2902;42.130;24.732;2022-10-16T10:11:00;100459.03;;;23.53;35.49
5755;BME280;2902;42.130;24.732;2022-10-16T10:13:27;100457.84;;;23.39;35.73
5755;BME280;2902;42.130;24.732;2022-10-16T10:15:54;100456.28;;;23.22;35.53
5755;BME280;2902;42.130;24.732;2022-10-16T10:18:23;100457.28;;;23.16;34.78
5755;BME280;2902;42.130;24.732;2022-10-16T10:20:58;100456.34;;;23.05;35.10
5755;BME280;2902;42.130;24.732;2022-10-16T10:23:27;100456.34;;;23.05;35.07
5755;BME280;2902;42.130;24.732;2022-10-16T10:25:58;100460.00;;;23.16;34.43
5755;BME280;2902;42.130;24.732;2022-10-16T10:28:49;100449.41;;;23.14;34.19
5755;BME280;2902;42.130;24.732;2022-10-16T10:31:23;100449.41;;;23.14;34.38
5755;BME280;2902;42.130;24.732;2022-10-16T10:33:58;100452.00;;;23.26;34.05
5755;BME280;2902;42.130;24.732;2022-10-16T10:36:34;100446.44;;;23.37;33.76
5755;BME280;2902;42.130;24.732;2022-10-16T10:39:06;100438.44;;;23.52;33.78
5755;BME280;2902;42.130;24.732;2022-10-16T10:41:57;100436.63;;;23.63;33.14
5755;BME280;2902;42.130;24.732;2022-10-16T10:44:40;100439.22;;;23.79;32.95
5755;BME280;2902;42.130;24.732;2022-10-16T10:47:17;100434.78;;;23.68;33.33
5755;BME280;2902;42.130;24.732;2022-10-16T10:49:56;100427.22;;;23.70;33.11
5755;BME280;2902;42.130;24.732;2022-10-16T10:52:34;100431.41;;;23.56;32.74
5755;BME280;2902;42.130;24.732;2022-10-16T10:55:10;100432.84;;;23.64;32.83
5755;BME280;2902;42.130;24.732;2022-10-16T10:57:52;100430.97;;;23.69;33.59
5755;BME280;2902;42.130;24.732;2022-10-16T11:00:28;100420.44;;;23.73;33.02
5755;BME280;2902;42.130;24.732;2022-10-16T11:03:06;100433.03;;;23.57;33.55
5755;BME280;2902;42.130;24.732;2022-10-16T11:05:44;100420.91;;;23.33;33.13
5755;BME280;2902;42.130;24.732;2022-10-16T11:08:16;100416.00;;;23.30;33.62
5755;BME280;2902;42.130;24.732;2022-10-16T11:10:51;100425.47;;;23.28;33.02
5755;BME280;2902;42.130;24.732;2022-10-16T11:13:30;100401.88;;;23.07;36.41
5755;BME280;2902;42.130;24.732;2022-10-16T11:16:01;100413.22;;;23.25;37.19
5755;BME280;2902;42.130;24.732;2022-10-16T11:18:36;100416.28;;;23.34;33.55
5755;BME280;2902;42.130;24.732;2022-10-16T11:21:08;100411.53;;;23.46;34.14
5755;BME280;2902;42.130;24.732;2022-10-16T11:23:41;100406.47;;;23.28;34.70
5755;BME280;2902;42.130;24.732;2022-10-16T11:26:15;100403.13;;;23.47;34.56
5755;BME280;2902;42.130;24.732;2022-10-16T11:28:46;100393.00;;;23.69;35.00
5755;BME280;2902;42.130;24.732;2022-10-16T11:31:16;100400.25;;;23.90;36.26
5755;BME280;2902;42.130;24.732;2022-10-16T11:33:48;100398.75;;;24.09;34.59
5755;BME280;2902;42.130;24.732;2022-10-16T11:36:21;100394.63;;;24.02;34.01
5755;BME280;2902;42.130;24.732;2022-10-16T11:38:52;100391.59;;;23.98;33.91
5755;BME280;2902;42.130;24.732;2022-10-16T11:41:27;100389.53;;;24.10;32.05
5755;BME280;2902;42.130;24.732;2022-10-16T11:44:06;100393.41;;;24.24;34.02
5755;BME280;2902;42.130;24.732;2022-10-16T11:46:38;100395.00;;;24.15;31.23
5755;BME280;2902;42.130;24.732;2022-10-16T11:49:10;100391.75;;;24.18;32.52
5755;BME280;2902;42.130;24.732;2022-10-16T11:51:45;100391.50;;;24.25;34.55
5755;BME280;2902;42.130;24.732;2022-10-16T11:54:21;100405.41;;;24.33;30.93
5755;BME280;2902;42.130;24.732;2022-10-16T11:56:51;100399.41;;;24.26;30.69
5755;BME280;2902;42.130;24.732;2022-10-16T11:59:25;100404.28;;;24.24;31.13
5755;BME280;2902;42.130;24.732;2022-10-16T12:01:59;100402.09;;;24.21;30.16
5755;BME280;2902;42.130;24.732;2022-10-16T12:04:34;100404.25;;;24.19;30.54
5755;BME280;2902;42.130;24.732;2022-10-16T12:07:13;100401.44;;;24.04;31.24
5755;BME280;2902;42.130;24.732;2022-10-16T12:09:42;100399.13;;;23.86;30.34
5755;BME280;2902;42.130;24.732;2022-10-16T12:12:24;100402.78;;;23.70;30.67
5755;BME280;2902;42.130;24.732;2022-10-16T12:15:00;100387.03;;;23.67;34.30
5755;BME280;2902;42.130;24.732;2022-10-16T12:17:34;100391.59;;;23.62;31.48
5755;BME280;2902;42.130;24.732;2022-10-16T12:20:20;100396.13;;;23.51;32.49
5755;BME280;2902;42.130;24.732;2022-10-16T12:22:50;100393.38;;;23.46;34.86
5755;BME280;2902;42.130;24.732;2022-10-16T12:25:21;100396.31;;;23.45;33.44
5755;BME280;2902;42.130;24.732;2022-10-16T12:27:58;100393.16;;;23.53;33.34
5755;BME280;2902;42.130;24.732;2022-10-16T12:30:27;100391.88;;;23.65;34.82
5755;BME280;2902;42.130;24.732;2022-10-16T12:32:56;100389.38;;;23.27;32.37
5755;BME280;2902;42.130;24.732;2022-10-16T12:35:26;100389.50;;;23.37;35.56
5755;BME280;2902;42.130;24.732;2022-10-16T12:38:08;100390.75;;;23.61;33.07
5755;BME280;2902;42.130;24.732;2022-10-16T12:40:41;100391.38;;;23.68;32.73
5755;BME280;2902;42.130;24.732;2022-10-16T12:43:26;100396.72;;;23.58;32.83
5755;BME280;2902;42.130;24.732;2022-10-16T12:48:31;100393.69;;;23.23;33.02
5755;BME280;2902;42.130;24.732;2022-10-16T12:51:09;100381.13;;;23.17;34.37
5755;BME280;2902;42.130;24.732;2022-10-16T12:53:38;100404.94;;;23.37;34.62
5755;BME280;2902;42.130;24.732;2022-10-16T12:56:15;100406.16;;;23.24;32.96
5755;BME280;2902;42.130;24.732;2022-10-16T12:59:04;100408.66;;;23.04;33.18
5755;BME280;2902;42.130;24.732;2022-10-16T13:01:42;100400.56;;;23.09;33.45
5755;BME280;2902;42.130;24.732;2022-10-16T13:04:38;100401.59;;;23.08;33.74
5755;BME280;2902;42.130;24.732;2022-10-16T13:07:24;100375.94;;;22.89;34.50
5755;BME280;2902;42.130;24.732;2022-10-16T13:10:05;100401.72;;;23.18;34.58
5755;BME280;2902;42.130;24.732;2022-10-16T13:12:50;100404.00;;;23.26;32.77
5755;BME280;2902;42.130;24.732;2022-10-16T13:15:39;100406.78;;;23.31;33.19
5755;BME280;2902;42.130;24.732;2022-10-16T13:18:14;100409.41;;;23.21;33.34